Time;durP1;ratioP1;P1;durP2;ratioP2;P2;SDS_P1;SDS_P2;PMS_P1;PMS_P2;Temp;Humidity;BMP_temperature;BMP_pressure;BME280_temperature;BME280_humidity;BME280_pressure;Samples;Min_cycle;Max_cycle;Signal;HPM_P1;HPM_P2
2022/03/10 00:00:54;;;;;;;9.65;4.88;;;;;;;-1.10;76.35;102714.84;5002715;28;20144;-60
2022/03/10 00:03:20;;;;;;;9.85;5.13;;;;;;;-1.09;76.12;102710.63;4996523;28;20061;-60
2022/03/10 00:05:47;;;;;;;11.52;5.18;;;;;;;-1.13;76.35;102714.63;4995836;28;20074;-61
2022/03/10 00:08:13;;;;;;;9.80;4.35;;;;;;;-1.12;76.03;102718.06;4993364;28;20054;-60
2022/03/10 00:10:39;;;;;;;9.07;5.13;;;;;;;-1.14;75.96;102722.16;4992802;28;20743;-61
2022/03/10 00:13:06;;;;;;;8.57;4.60;;;;;;;-1.17;76.02;102727.91;4997926;28;20832;-60
2022/03/10 00:15:34;;;;;;;11.07;5.45;;;;;;;-1.18;76.49;102735.44;5006001;28;20053;-61
2022/03/10 00:18:02;;;;;;;8.48;4.22;;;;;;;-1.21;76.32;102737.78;4992055;28;20046;-60
2022/03/10 00:20:28;;;;;;;9.25;4.72;;;;;;;-1.25;76.46;102738.34;4992384;28;20500;-59
2022/03/10 00:22:56;;;;;;;9.38;4.97;;;;;;;-1.30;76.47;102736.34;4996378;28;20058;-60
2022/03/10 00:25:23;;;;;;;8.02;3.67;;;;;;;-1.32;76.62;102737.91;4994488;28;20168;-61
2022/03/10 00:27:50;;;;;;;10.25;4.47;;;;;;;-1.32;76.56;102737.00;4997477;28;20061;-60
2022/03/10 00:30:17;;;;;;;8.43;4.78;;;;;;;-1.33;76.53;102741.22;4998360;28;20165;-60
2022/03/10 00:32:47;;;;;;;9.25;4.82;;;;;;;-1.33;76.36;102746.31;4990078;28;20061;-60
2022/03/10 00:35:18;;;;;;;9.40;5.65;;;;;;;-1.35;76.66;102747.84;4998276;28;20053;-62
2022/03/10 00:37:46;;;;;;;9.85;4.47;;;;;;;-1.35;76.37;102750.41;4998968;28;20573;-61
2022/03/10 00:40:13;;;;;;;9.63;4.60;;;;;;;-1.35;76.46;102752.94;4997771;28;20135;-62
2022/03/10 00:42:40;;;;;;;9.70;4.68;;;;;;;-1.35;76.23;102758.03;4996770;28;20081;-61
2022/03/10 00:45:08;;;;;;;7.70;4.25;;;;;;;-1.36;76.34;102761.34;4994851;28;20410;-61
2022/03/10 00:47:35;;;;;;;10.55;5.00;;;;;;;-1.36;76.36;102758.81;4992635;28;20061;-60
2022/03/10 00:50:04;;;;;;;8.90;4.45;;;;;;;-1.37;76.21;102757.03;4991622;28;20310;-61
2022/03/10 00:52:31;;;;;;;9.85;5.13;;;;;;;-1.37;76.68;102759.59;4990800;28;20054;-62
2022/03/10 00:54:58;;;;;;;11.18;5.13;;;;;;;-1.39;76.43;102758.59;5000007;28;20062;-61
2022/03/10 00:57:24;;;;;;;9.48;4.97;;;;;;;-1.38;76.56;102762.91;4995468;28;20662;-60
2022/03/10 00:59:52;;;;;;;10.25;5.15;;;;;;;-1.39;76.29;102766.22;4994112;28;20054;-61
2022/03/10 01:02:18;;;;;;;12.70;5.30;;;;;;;-1.39;76.18;102771.31;4996330;28;20090;-61
2022/03/10 01:04:44;;;;;;;10.25;5.15;;;;;;;-1.38;76.14;102777.28;4985833;28;20515;-60
2022/03/10 01:07:12;;;;;;;9.43;4.68;;;;;;;-1.40;76.56;102779.72;4987342;28;20061;-61
2022/03/10 01:09:39;;;;;;;9.75;4.82;;;;;;;-1.41;76.32;102783.03;4989733;28;20049;-61
2022/03/10 01:12:05;;;;;;;11.00;4.90;;;;;;;-1.40;75.91;102778.84;4999589;28;20169;-61
2022/03/10 01:14:32;;;;;;;11.43;4.88;;;;;;;-1.43;76.25;102779.50;5001772;28;20049;-62
2022/03/10 01:16:58;;;;;;;9.60;5.50;;;;;;;-1.43;76.48;102774.41;4997708;28;20054;-61
2022/03/10 01:19:25;;;;;;;10.43;4.82;;;;;;;-1.42;75.94;102776.19;4991025;28;20053;-61
2022/03/10 01:21:51;;;;;;;8.75;4.22;;;;;;;-1.42;76.04;102776.19;4999390;28;20042;-61
2022/03/10 01:24:19;;;;;;;10.90;4.90;;;;;;;-1.44;76.42;102782.81;5001139;28;20072;-61
2022/03/10 01:26:45;;;;;;;9.00;4.40;;;;;;;-1.45;75.97;102781.03;4995860;28;20811;-61
2022/03/10 01:29:13;;;;;;;10.48;4.90;;;;;;;-1.43;76.12;102794.75;4996760;28;20057;-60
2022/03/10 01:31:39;;;;;;;9.60;4.50;;;;;;;-1.44;76.21;102793.00;4996758;28;20909;-62
2022/03/10 01:34:06;;;;;;;9.55;4.75;;;;;;;-1.46;76.42;102799.63;4987189;28;20061;-62
2022/03/10 01:36:32;;;;;;;8.68;4.43;;;;;;;-1.47;75.95;102799.50;4992472;28;20752;-62
2022/03/10 01:39:03;;;;;;;9.63;5.15;;;;;;;-1.47;76.00;102802.06;4993757;28;20050;-62
2022/03/10 01:41:32;;;;;;;7.40;4.28;;;;;;;-1.47;76.37;102808.03;5002381;28;20129;-62
2022/03/10 01:43:59;;;;;;;7.70;4.70;;;;;;;-1.50;76.22;102812.91;4985157;28;20058;-62
2022/03/10 01:46:25;;;;;;;7.80;4.47;;;;;;;-1.53;75.99;102815.22;4991011;28;20054;-62
2022/03/10 01:48:52;;;;;;;8.38;4.28;;;;;;;-1.56;76.02;102817.53;5000066;28;20057;-62
2022/03/10 01:51:20;;;;;;;9.15;4.93;;;;;;;-1.60;75.86;102816.38;4998799;28;20053;-61
2022/03/10 01:53:48;;;;;;;10.57;5.03;;;;;;;-1.64;76.33;102813.50;4996890;28;20049;-62
2022/03/10 01:56:16;;;;;;;10.32;4.75;;;;;;;-1.65;76.18;102814.28;4992944;28;20053;-62
2022/03/10 01:58:44;;;;;;;8.77;5.07;;;;;;;-1.67;75.92;102808.19;4991653;28;20742;-62
2022/03/10 02:01:11;;;;;;;10.60;5.00;;;;;;;-1.70;76.20;102813.06;4997545;28;20061;-61
2022/03/10 02:03:37;;;;;;;10.18;4.55;;;;;;;-1.73;75.97;102807.75;4998472;28;20056;-62
2022/03/10 02:06:04;;;;;;;7.07;3.75;;;;;;;-1.74;75.94;102816.16;4998675;28;20046;-62
2022/03/10 02:11:14;;;;;;;9.88;4.80;;;;;;;-1.77;76.56;102815.91;4994309;28;20069;-61
2022/03/10 02:13:41;;;;;;;9.90;5.60;;;;;;;-1.78;76.93;102816.69;4985098;28;20060;-61
2022/03/10 02:19:10;;;;;;;10.65;5.80;;;;;;;-1.81;77.16;102821.56;4960974;28;20062;-62
2022/03/10 02:21:37;;;;;;;10.52;4.88;;;;;;;-1.85;77.05;102822.97;4961743;28;20551;-62
2022/03/10 02:24:06;;;;;;;10.95;5.97;;;;;;;-1.86;77.09;102830.50;4977531;28;20608;-62
2022/03/10 02:26:32;;;;;;;10.43;5.00;;;;;;;-1.89;77.20;102836.22;4992521;28;20050;-61
2022/03/10 02:28:59;;;;;;;10.43;5.40;;;;;;;-1.89;77.13;102851.50;4984331;28;20496;-61
2022/03/10 02:31:25;;;;;;;12.48;6.10;;;;;;;-1.89;77.09;102840.44;4994769;28;20061;-63
2022/03/10 02:33:52;;;;;;;13.02;6.30;;;;;;;-1.91;77.16;102843.75;5003396;28;20068;-63
2022/03/10 02:36:19;;;;;;;11.50;5.57;;;;;;;-1.92;77.48;102847.06;4985224;28;20049;-62
2022/03/10 02:38:45;;;;;;;10.43;5.28;;;;;;;-1.93;77.50;102849.47;4996901;28;20054;-61
2022/03/10 02:41:13;;;;;;;10.65;5.47;;;;;;;-1.94;77.26;102851.13;5001324;28;20057;-61
2022/03/10 02:43:39;;;;;;;10.68;5.00;;;;;;;-1.95;77.25;102846.81;4991154;28;20104;-60
2022/03/10 02:46:05;;;;;;;11.02;5.50;;;;;;;-1.97;77.55;102844.94;4995730;28;20054;-62
2022/03/10 02:48:32;;;;;;;14.50;7.57;;;;;;;-1.97;77.13;102852.56;4996095;28;20762;-62
2022/03/10 02:50:58;;;;;;;13.30;6.63;;;;;;;-1.99;77.34;102860.06;4994805;28;20065;-61
2022/03/10 02:53:25;;;;;;;10.93;5.72;;;;;;;-2.01;77.06;102871.78;4989711;28;20058;-61
2022/03/10 02:55:51;;;;;;;10.43;5.82;;;;;;;-2.01;77.15;102866.69;4997450;28;20077;-62
2022/03/10 02:58:19;;;;;;;9.90;5.07;;;;;;;-2.02;76.92;102867.47;5000617;28;20506;-62
2022/03/10 03:00:45;;;;;;;11.52;5.15;;;;;;;-2.05;76.85;102869.78;4984561;28;20054;-63
2022/03/10 03:03:12;;;;;;;13.90;5.97;;;;;;;-2.07;76.91;102861.16;4993018;28;20065;-63
2022/03/10 03:05:38;;;;;;;11.23;5.47;;;;;;;-2.08;76.75;102869.53;4991092;28;20049;-63
2022/03/10 03:08:06;;;;;;;13.60;6.22;;;;;;;-2.08;76.74;102869.53;4983751;28;20057;-63
2022/03/10 03:10:36;;;;;;;10.90;4.75;;;;;;;-2.10;76.57;102876.13;5000287;28;20093;-63
2022/03/10 03:13:05;;;;;;;10.30;5.28;;;;;;;-2.12;76.20;102880.22;4986887;28;20176;-63
2022/03/10 03:15:32;;;;;;;16.00;6.82;;;;;;;-2.14;76.12;102879.22;4984794;28;20050;-63
2022/03/10 03:17:59;;;;;;;12.60;6.07;;;;;;;-2.17;75.95;102889.13;4994043;28;20054;-61
2022/03/10 03:20:25;;;;;;;10.60;5.32;;;;;;;-2.19;76.17;102885.59;4989731;28;20130;-61
2022/03/10 03:22:52;;;;;;;11.57;5.13;;;;;;;-2.21;76.17;102887.13;4992384;28;20609;-61
2022/03/10 03:25:18;;;;;;;16.10;7.05;;;;;;;-2.21;75.96;102887.13;4983920;28;20057;-61
2022/03/10 03:27:45;;;;;;;11.73;5.50;;;;;;;-2.22;75.91;102890.44;4994629;28;20046;-61
2022/03/10 03:30:12;;;;;;;14.48;5.40;;;;;;;-2.24;75.78;102891.97;4995149;28;20057;-62
2022/03/10 03:32:40;;;;;;;11.57;5.40;;;;;;;-2.27;75.42;102894.28;4990457;28;20058;-62
2022/03/10 03:35:06;;;;;;;7.55;4.50;;;;;;;-2.30;75.70;102901.66;4998251;28;20054;-62
2022/03/10 03:37:33;;;;;;;11.15;5.30;;;;;;;-2.33;75.50;102901.44;4993928;28;20057;-62
2022/03/10 03:39:59;;;;;;;10.80;5.50;;;;;;;-2.36;75.97;102908.81;4997356;28;20053;-63
2022/03/10 03:42:25;;;;;;;14.05;5.63;;;;;;;-2.40;75.32;102919.50;4995346;28;20049;-62
2022/03/10 03:44:52;;;;;;;10.55;5.25;;;;;;;-2.43;75.60;102917.59;5007429;28;20058;-63
2022/03/10 03:47:18;;;;;;;13.73;5.97;;;;;;;-2.46;75.51;102913.94;4990982;28;20065;-62
2022/03/10 03:49:46;;;;;;;12.75;5.40;;;;;;;-2.49;75.55;102918.78;4996413;28;20054;-62
2022/03/10 03:52:13;;;;;;;13.43;6.20;;;;;;;-2.50;75.44;102917.00;4990848;28;20065;-62
2022/03/10 03:54:39;;;;;;;13.45;5.68;;;;;;;-2.55;75.47;102920.06;4994184;28;20450;-62
2022/03/10 03:57:05;;;;;;;11.70;5.32;;;;;;;-2.58;75.54;102919.84;4997643;28;22615;-62
2022/03/10 03:59:32;;;;;;;17.05;5.65;;;;;;;-2.59;75.47;102924.78;4999426;28;20057;-62
2022/03/10 04:01:58;;;;;;;11.57;5.25;;;;;;;-2.62;75.64;102927.94;4992227;28;20060;-62
2022/03/10 04:04:25;;;;;;;10.50;5.30;;;;;;;-2.66;75.43;102935.19;4991533;28;20108;-61
2022/03/10 04:06:52;;;;;;;9.95;5.22;;;;;;;-2.70;75.67;102938.25;4991332;28;20672;-61
2022/03/10 04:09:19;;;;;;;10.85;5.25;;;;;;;-2.72;75.64;102943.19;5001363;28;20054;-62
2022/03/10 04:11:45;;;;;;;9.35;5.20;;;;;;;-2.76;75.71;102948.81;4994415;28;20054;-61
2022/03/10 04:14:12;;;;;;;10.77;5.78;;;;;;;-2.79;75.44;102951.09;4998376;28;20053;-61
2022/03/10 04:16:39;;;;;;;12.93;5.72;;;;;;;-2.83;75.61;102951.63;4996369;28;20056;-60
2022/03/10 04:19:06;;;;;;;12.70;6.47;;;;;;;-2.86;76.21;102962.41;4998368;28;20478;-62
2022/03/10 04:21:33;;;;;;;16.60;6.15;;;;;;;-2.91;75.56;102962.78;4996488;28;20049;-61
2022/03/10 04:24:02;;;;;;;12.05;5.43;;;;;;;-2.95;76.02;102963.31;4989721;28;20056;-61
2022/03/10 04:26:28;;;;;;;12.75;6.63;;;;;;;-2.95;75.98;102970.94;4999641;28;20046;-60
2022/03/10 04:28:54;;;;;;;11.80;5.50;;;;;;;-2.99;75.88;102974.88;5001288;28;20057;-61
2022/03/10 04:31:21;;;;;;;12.02;5.88;;;;;;;-3.00;76.25;102972.19;5001329;28;20415;-60
2022/03/10 04:33:48;;;;;;;12.65;5.30;;;;;;;-3.03;75.91;102979.56;4996292;28;20105;-61
2022/03/10 04:36:14;;;;;;;11.02;5.95;;;;;;;-3.05;75.99;102981.09;5000746;28;20049;-60
2022/03/10 04:38:41;;;;;;;12.65;5.45;;;;;;;-3.08;76.04;102983.38;4993883;28;20057;-61
2022/03/10 04:41:09;;;;;;;12.88;6.45;;;;;;;-3.13;75.93;102980.44;5005479;28;20534;-62
2022/03/10 04:43:35;;;;;;;11.93;6.32;;;;;;;-3.14;76.05;102982.84;4986750;28;20046;-60
2022/03/10 04:46:03;;;;;;;14.00;6.35;;;;;;;-3.18;76.34;102992.75;5000273;28;20065;-62
2022/03/10 04:48:29;;;;;;;23.38;7.13;;;;;;;-3.22;76.05;102995.78;5000854;28;20501;-61
2022/03/10 04:50:56;;;;;;;18.70;8.05;;;;;;;-3.24;76.34;103001.50;5003102;28;20065;-61
2022/03/10 04:53:23;;;;;;;15.80;7.03;;;;;;;-3.27;76.53;102999.59;4999756;28;20057;-61
2022/03/10 04:55:49;;;;;;;15.25;7.85;;;;;;;-3.30;76.16;103001.88;4988067;28;20716;-62
2022/03/10 04:58:17;;;;;;;15.45;7.25;;;;;;;-3.30;76.76;103006.06;4997178;28;20068;-60
2022/03/10 05:00:43;;;;;;;13.40;7.45;;;;;;;-3.32;76.52;103003.41;4991305;28;20073;-63
2022/03/10 05:03:10;;;;;;;15.25;8.32;;;;;;;-3.34;76.37;103015.06;4994457;28;20396;-61
2022/03/10 05:05:37;;;;;;;18.92;9.07;;;;;;;-3.37;76.41;103014.81;4996394;28;20062;-62
2022/03/10 05:08:04;;;;;;;14.80;8.05;;;;;;;-3.41;76.20;103020.38;4985243;28;20046;-62
2022/03/10 05:10:30;;;;;;;17.08;8.32;;;;;;;-3.43;76.15;103023.53;4994019;28;20050;-61
2022/03/10 05:13:00;;;;;;;20.58;9.10;;;;;;;-3.46;76.23;103029.25;4987310;28;20058;-62
2022/03/10 05:15:31;;;;;;;17.90;8.98;;;;;;;-3.48;76.75;103033.31;4998106;28;20039;-61
2022/03/10 05:17:58;;;;;;;18.13;8.95;;;;;;;-3.49;76.68;103034.06;4996406;28;20084;-61
2022/03/10 05:20:25;;;;;;;18.08;9.63;;;;;;;-3.48;77.04;103035.84;4989809;28;20756;-61
2022/03/10 05:22:53;;;;;;;17.38;9.05;;;;;;;-3.49;76.95;103034.06;4995475;28;20108;-62
2022/03/10 05:25:21;;;;;;;19.20;10.07;;;;;;;-3.47;77.02;103040.16;4999179;28;20498;-60
2022/03/10 05:27:48;;;;;;;17.70;8.85;;;;;;;-3.45;77.10;103043.69;4994714;28;20050;-61
2022/03/10 05:30:15;;;;;;;15.32;7.03;;;;;;;-3.43;76.86;103039.66;4989486;28;20049;-63
2022/03/10 05:32:43;;;;;;;15.27;5.78;;;;;;;-3.42;76.74;103045.59;4984881;28;20054;-62
2022/03/10 05:35:14;;;;;;;16.00;7.57;;;;;;;-3.40;76.97;103047.50;4998380;28;20797;-62
2022/03/10 05:37:41;;;;;;;13.45;6.18;;;;;;;-3.39;77.19;103046.75;4990290;28;20067;-62
2022/03/10 05:40:09;;;;;;;13.63;6.20;;;;;;;-3.35;77.12;103043.72;4988164;28;20575;-61
2022/03/10 05:42:38;;;;;;;12.95;6.30;;;;;;;-3.34;76.80;103050.56;4992991;28;20054;-61
2022/03/10 05:45:05;;;;;;;11.90;5.88;;;;;;;-3.31;77.09;103055.91;4994025;28;20130;-61
2022/03/10 05:47:31;;;;;;;10.27;5.35;;;;;;;-3.28;76.78;103056.16;5001559;28;20061;-61
2022/03/10 05:49:59;;;;;;;13.40;5.97;;;;;;;-3.24;76.84;103057.28;4991516;28;20480;-60
2022/03/10 05:52:26;;;;;;;15.07;6.07;;;;;;;-3.22;76.80;103050.69;4994555;28;20077;-61
2022/03/10 05:54:52;;;;;;;14.93;7.03;;;;;;;-3.18;76.86;103058.69;4998113;28;20049;-61
2022/03/10 05:57:18;;;;;;;10.95;6.00;;;;;;;-3.14;76.71;103061.50;4998294;28;20049;-62
2022/03/10 05:59:45;;;;;;;15.95;5.68;;;;;;;-3.09;76.99;103062.78;4987383;28;20484;-62
2022/03/10 06:02:11;;;;;;;13.45;6.72;;;;;;;-3.04;76.75;103071.69;4997325;28;20059;-62
2022/03/10 06:04:38;;;;;;;13.02;7.22;;;;;;;-3.00;76.72;103073.72;4984169;28;20046;-62
2022/03/10 06:07:06;;;;;;;12.15;5.00;;;;;;;-2.95;76.91;103077.50;4987810;28;20050;-61
2022/03/10 06:09:32;;;;;;;14.23;6.20;;;;;;;-2.89;76.99;103081.44;4991135;28;20716;-60
2022/03/10 06:11:58;;;;;;;14.40;6.28;;;;;;;-2.83;77.07;103088.69;4996257;28;20062;-59
2022/03/10 06:14:25;;;;;;;13.93;6.22;;;;;;;-2.75;76.57;103090.19;4992724;28;20128;-62
2022/03/10 06:16:51;;;;;;;14.80;6.13;;;;;;;-2.66;76.98;103088.41;4985564;28;20447;-61
2022/03/10 06:19:18;;;;;;;15.98;6.35;;;;;;;-2.55;76.73;103108.00;4999159;28;20050;-60
2022/03/10 06:21:44;;;;;;;11.05;4.85;;;;;;;-2.42;77.00;103109.88;4992273;28;20060;-61
2022/03/10 06:24:12;;;;;;;14.77;6.45;;;;;;;-2.30;77.02;103104.91;4992219;28;20113;-60
2022/03/10 06:26:39;;;;;;;9.93;5.50;;;;;;;-2.15;76.57;103107.78;5000637;28;20046;-60
2022/03/10 06:29:07;;;;;;;11.82;5.32;;;;;;;-1.99;75.94;103114.25;4988120;28;20426;-60
2022/03/10 06:31:34;;;;;;;10.38;5.70;;;;;;;-1.79;75.51;103114.94;4993095;28;20050;-60
2022/03/10 06:34:01;;;;;;;13.27;5.75;;;;;;;-1.66;74.99;103115.13;5002246;28;20061;-60
2022/03/10 06:36:28;;;;;;;11.65;5.63;;;;;;;-1.48;74.01;103116.59;4992311;28;20050;-61
2022/03/10 06:38:54;;;;;;;15.10;6.63;;;;;;;-1.31;73.54;103116.25;4992818;28;20054;-60
2022/03/10 06:41:22;;;;;;;11.73;5.38;;;;;;;-1.11;73.58;103115.22;4989683;28;20525;-61
2022/03/10 06:43:49;;;;;;;11.52;5.68;;;;;;;-0.90;72.83;103125.31;4993915;28;20050;-61
2022/03/10 06:46:15;;;;;;;12.68;5.80;;;;;;;-0.76;71.75;103130.66;4998264;28;20045;-61
2022/03/10 06:48:42;;;;;;;13.10;6.53;;;;;;;-0.58;71.63;103131.16;4994367;28;20066;-61
2022/03/10 06:51:08;;;;;;;15.02;7.15;;;;;;;-0.39;71.67;103128.34;4996991;28;20058;-60
2022/03/10 06:53:35;;;;;;;14.20;6.65;;;;;;;-0.22;70.02;103127.91;4988942;28;20046;-61
2022/03/10 06:56:01;;;;;;;11.70;5.70;;;;;;;-0.03;69.34;103136.13;4989908;28;20491;-61
2022/03/10 06:58:29;;;;;;;11.18;6.40;;;;;;;0.16;67.03;103134.91;4989633;28;20054;-60
2022/03/10 07:00:55;;;;;;;12.50;6.53;;;;;;;0.36;67.63;103142.31;4989436;28;20054;-62
2022/03/10 07:03:23;;;;;;;16.10;5.68;;;;;;;0.49;67.29;103144.97;4992095;28;20053;-62
2022/03/10 07:05:49;;;;;;;16.27;6.72;;;;;;;0.69;65.33;103145.50;4990351;28;20061;-60
2022/03/10 07:08:16;;;;;;;12.32;5.85;;;;;;;0.81;65.21;103154.91;4987271;28;20050;-57
2022/03/10 07:10:42;;;;;;;22.77;9.82;;;;;;;0.92;63.40;103147.97;4995093;28;20054;-57
2022/03/10 07:13:09;;;;;;;11.80;6.38;;;;;;;1.05;62.65;103148.06;4993317;28;20050;-57
2022/03/10 07:15:37;;;;;;;11.15;5.25;;;;;;;1.19;61.95;103149.88;4996731;28;20081;-56
2022/03/10 07:18:05;;;;;;;11.25;5.22;;;;;;;1.31;61.38;103148.94;4996830;28;20506;-57
2022/03/10 07:20:31;;;;;;;11.18;5.15;;;;;;;1.36;60.17;103158.69;5001683;28;20193;-58
2022/03/10 07:22:58;;;;;;;9.85;5.18;;;;;;;1.37;59.76;103165.56;5004143;28;20049;-61
2022/03/10 07:25:24;;;;;;;12.85;5.13;;;;;;;1.35;59.27;103168.81;5001491;28;20061;-60
2022/03/10 07:27:51;;;;;;;12.25;6.22;;;;;;;1.39;59.50;103164.00;4998675;28;20049;-58
2022/03/10 07:30:18;;;;;;;12.07;5.68;;;;;;;1.41;59.60;103171.78;5000070;28;20053;-55
2022/03/10 07:32:45;;;;;;;10.57;5.55;;;;;;;1.47;59.56;103167.06;4999892;28;20053;-50
2022/03/10 07:35:12;;;;;;;15.05;5.65;;;;;;;1.51;58.73;103174.16;4999276;28;20065;-52
2022/03/10 07:37:38;;;;;;;10.13;5.60;;;;;;;1.51;58.53;103174.16;4999230;28;20457;-50
2022/03/10 07:40:06;;;;;;;12.13;5.25;;;;;;;1.47;58.31;103172.19;5001618;28;20049;-55
2022/03/10 07:42:33;;;;;;;11.82;5.68;;;;;;;1.54;58.55;103174.38;5001469;28;20079;-48
2022/03/10 07:44:59;;;;;;;12.52;6.25;;;;;;;1.64;58.46;103171.66;4999706;28;20419;-53
2022/03/10 07:47:26;;;;;;;10.35;5.50;;;;;;;1.71;57.87;103168.72;4999547;28;20062;-60
2022/03/10 07:49:53;;;;;;;12.35;6.32;;;;;;;1.84;57.66;103171.31;4998324;28;20061;-61
2022/03/10 07:52:20;;;;;;;10.77;5.35;;;;;;;1.93;57.96;103162.47;4999621;28;20527;-60
2022/03/10 07:54:46;;;;;;;12.77;6.32;;;;;;;1.99;57.73;103161.19;4999046;28;20058;-59
2022/03/10 07:57:13;;;;;;;19.65;7.95;;;;;;;2.16;58.35;103159.75;5000905;28;20060;-58
2022/03/10 07:59:39;;;;;;;15.32;6.40;;;;;;;2.31;56.07;103158.16;4999917;28;20065;-59
2022/03/10 08:02:06;;;;;;;16.42;6.57;;;;;;;2.46;56.90;103161.69;4999597;28;20514;-52
2022/03/10 08:04:32;;;;;;;81.03;26.25;;;;;;;2.60;56.16;103164.22;4995684;28;20065;-57
2022/03/10 08:07:00;;;;;;;18.48;7.60;;;;;;;2.81;55.61;103170.69;4992559;28;20049;-57
2022/03/10 08:09:26;;;;;;;16.58;6.93;;;;;;;2.97;54.75;103175.97;4988780;28;20057;-57
2022/03/10 08:11:55;;;;;;;17.98;7.22;;;;;;;3.08;54.22;103166.38;4992864;28;20058;-58
2022/03/10 08:14:21;;;;;;;49.78;13.98;;;;;;;3.21;52.94;103168.03;4994903;28;20107;-57
2022/03/10 08:16:47;;;;;;;34.05;10.10;;;;;;;3.39;51.94;103174.25;4999829;28;20050;-58
2022/03/10 08:19:14;;;;;;;16.75;6.90;;;;;;;3.66;51.88;103173.31;5000107;28;20050;-57
2022/03/10 08:21:40;;;;;;;16.45;6.13;;;;;;;3.82;50.41;103171.66;4999368;28;20053;-58
2022/03/10 08:24:08;;;;;;;25.30;8.68;;;;;;;4.07;51.14;103170.56;5001282;28;20054;-58
2022/03/10 08:26:35;;;;;;;13.45;5.95;;;;;;;4.29;48.43;103172.69;4996244;28;20065;-61
2022/03/10 08:29:02;;;;;;;32.92;13.30;;;;;;;4.60;49.33;103169.22;4997603;28;20053;-64
2022/03/10 08:31:28;;;;;;;41.22;21.02;;;;;;;4.77;48.65;103178.75;4999979;28;20066;-59
2022/03/10 08:33:55;;;;;;;15.00;7.40;;;;;;;4.93;48.44;103175.31;5000504;28;20466;-57
2022/03/10 08:36:21;;;;;;;11.38;5.70;;;;;;;5.09;47.33;103172.75;4995979;28;20053;-60
2022/03/10 08:38:49;;;;;;;17.55;5.75;;;;;;;5.19;46.59;103168.97;4996997;28;20049;-52
2022/03/10 08:41:16;;;;;;;16.17;6.35;;;;;;;5.34;45.85;103170.69;5000510;28;20534;-61
2022/03/10 08:43:43;;;;;;;14.35;6.50;;;;;;;5.60;45.68;103169.44;4998532;28;20057;-54
2022/03/10 08:46:10;;;;;;;15.43;6.20;;;;;;;5.71;45.20;103178.56;4998992;28;21862;-57
2022/03/10 08:48:39;;;;;;;13.57;5.75;;;;;;;5.91;44.17;103165.88;4996628;28;20057;-51
2022/03/10 08:51:06;;;;;;;9.45;6.03;;;;;;;6.08;43.54;103165.00;4999337;28;20054;-60
2022/03/10 08:53:33;;;;;;;15.23;6.05;;;;;;;6.17;42.86;103160.28;4997622;28;20053;-56
2022/03/10 08:55:59;;;;;;;9.57;5.03;;;;;;;6.27;42.28;103165.09;4995270;28;20149;-59
2022/03/10 08:58:27;;;;;;;12.63;6.00;;;;;;;6.36;42.34;103161.19;4997058;28;20050;-58
2022/03/10 09:00:54;;;;;;;7.88;4.93;;;;;;;6.37;41.73;103163.81;4999411;28;20054;-54
2022/03/10 09:03:21;;;;;;;9.63;4.70;;;;;;;6.25;40.83;103160.66;4994944;28;20440;-59
2022/03/10 09:05:47;;;;;;;14.15;4.93;;;;;;;6.22;41.36;103153.66;5000385;28;20522;-64
2022/03/10 09:08:14;;;;;;;18.30;7.18;;;;;;;6.16;41.80;103158.50;4998950;28;20057;-59
2022/03/10 09:10:41;;;;;;;9.88;5.57;;;;;;;6.11;42.18;103159.97;5001357;28;20061;-59
2022/03/10 09:13:07;;;;;;;8.20;4.63;;;;;;;6.13;40.98;103158.38;4996160;28;20054;-57
2022/03/10 09:15:36;;;;;;;8.82;5.18;;;;;;;6.20;41.01;103164.69;4997256;28;20524;-60
2022/03/10 09:18:03;;;;;;;9.27;5.20;;;;;;;6.27;41.28;103157.34;4996351;28;20537;-58
2022/03/10 09:20:29;;;;;;;11.75;5.70;;;;;;;6.35;40.95;103156.84;4999327;28;20868;-58
2022/03/10 09:22:56;;;;;;;8.73;4.70;;;;;;;6.43;41.01;103164.13;4998030;28;20360;-59
2022/03/10 09:25:22;;;;;;;9.80;4.72;;;;;;;6.39;40.71;103161.31;4998448;28;20053;-57
2022/03/10 09:27:49;;;;;;;12.85;5.68;;;;;;;6.38;40.38;103170.75;4996882;28;20793;-60
2022/03/10 09:30:15;;;;;;;7.45;4.38;;;;;;;6.48;39.86;103169.47;4998180;28;20073;-56
2022/03/10 09:32:44;;;;;;;8.70;4.18;;;;;;;6.51;39.23;103172.19;4995788;28;20049;-62
2022/03/10 09:35:13;;;;;;;13.07;4.72;;;;;;;6.50;37.97;103175.59;4996875;28;20049;-62
2022/03/10 09:37:41;;;;;;;6.95;3.80;;;;;;;6.38;38.11;103169.88;5000056;28;20060;-61
2022/03/10 09:40:09;;;;;;;7.93;4.30;;;;;;;6.29;38.67;103170.31;4996549;28;20049;-61
2022/03/10 09:42:37;;;;;;;8.45;4.88;;;;;;;6.14;39.27;103170.44;4994902;28;20057;-62
2022/03/10 09:45:07;;;;;;;6.60;4.05;;;;;;;6.06;39.57;103171.75;4997975;28;20815;-59
2022/03/10 09:47:35;;;;;;;7.70;4.15;;;;;;;6.02;39.45;103175.00;4997018;28;20159;-60
2022/03/10 09:50:05;;;;;;;10.50;3.63;;;;;;;5.93;38.25;103169.41;4998240;28;20399;-58
2022/03/10 09:52:32;;;;;;;7.70;3.67;;;;;;;5.89;38.74;103177.75;4997558;28;20045;-60
2022/03/10 09:54:59;;;;;;;6.70;3.58;;;;;;;5.85;38.73;103170.69;4997833;28;20173;-61
2022/03/10 09:57:26;;;;;;;9.93;4.18;;;;;;;5.82;38.58;103178.25;4996712;28;20056;-59
2022/03/10 09:59:54;;;;;;;7.28;3.53;;;;;;;5.84;38.12;103184.34;4997824;28;20050;-59
2022/03/10 10:02:21;;;;;;;7.53;3.58;;;;;;;5.80;38.28;103179.88;4999323;28;20550;-60
2022/03/10 10:04:48;;;;;;;13.93;3.60;;;;;;;5.69;38.06;103180.19;4996109;28;20065;-59
2022/03/10 10:07:21;;;;;;;8.32;3.58;;;;;;;5.61;36.80;103180.59;4998553;28;20054;-58
2022/03/10 10:09:53;;;;;;;10.35;3.58;;;;;;;5.50;37.14;103195.50;4997639;28;20053;-58
2022/03/10 10:12:22;;;;;;;5.72;3.08;;;;;;;5.36;37.56;103183.63;4996056;28;20049;-60
2022/03/10 10:14:49;;;;;;;5.82;3.28;;;;;;;5.37;37.49;103175.09;4993127;28;20128;-52
2022/03/10 10:17:16;;;;;;;5.70;2.90;;;;;;;5.40;36.46;103175.25;4994257;28;20053;-58
2022/03/10 10:19:44;;;;;;;5.78;2.88;;;;;;;5.38;35.81;103177.75;4998453;28;20164;-61
2022/03/10 10:22:13;;;;;;;6.95;2.88;;;;;;;5.34;35.43;103177.50;4995830;28;20054;-62
2022/03/10 10:24:48;;;;;;;8.02;2.65;;;;;;;5.29;35.37;103176.38;4990664;28;20054;-62
2022/03/10 10:27:16;;;;;;;5.60;2.83;;;;;;;5.23;35.67;103176.06;4990978;28;20050;-63
2022/03/10 10:29:50;;;;;;;9.52;3.15;;;;;;;5.27;35.86;103178.00;4989731;28;20157;-65
2022/03/10 10:32:30;;;;;;;5.10;2.80;;;;;;;5.34;35.64;103174.94;4995285;28;20507;-61
2022/03/10 10:35:06;;;;;;;6.13;2.80;;;;;;;5.29;34.75;103171.25;4998105;28;20521;-60
2022/03/10 10:37:33;;;;;;;6.10;2.60;;;;;;;5.26;35.60;103171.97;4997019;28;20530;-59
2022/03/10 10:40:02;;;;;;;6.63;2.95;;;;;;;5.41;35.17;103171.88;5000043;28;20569;-60
2022/03/10 10:42:32;;;;;;;5.82;3.08;;;;;;;5.48;35.03;103171.38;4996905;28;20116;-59
2022/03/10 10:45:00;;;;;;;9.15;3.03;;;;;;;5.57;34.61;103169.28;4995254;28;20061;-57
2022/03/10 10:47:27;;;;;;;8.07;3.15;;;;;;;5.64;34.93;103173.91;4985733;28;20503;-57
2022/03/10 10:49:58;;;;;;;5.07;2.72;;;;;;;5.65;34.63;103173.09;4993706;28;20050;-60
2022/03/10 10:52:25;;;;;;;5.25;2.63;;;;;;;5.61;34.91;103171.19;4992064;28;20049;-59
2022/03/10 10:55:09;;;;;;;6.10;2.63;;;;;;;5.60;34.19;103161.72;4997214;28;20141;-60
2022/03/10 10:57:36;;;;;;;4.97;2.90;;;;;;;5.63;34.69;103166.13;4989931;28;20514;-66
2022/03/10 11:00:07;;;;;;;11.55;3.33;;;;;;;5.66;35.11;103168.84;5000233;28;20056;-64
2022/03/10 11:02:35;;;;;;;6.28;3.10;;;;;;;5.69;34.18;103169.00;4990767;28;20056;-59
2022/03/10 11:05:03;;;;;;;6.13;2.80;;;;;;;5.68;34.34;103172.38;4996511;28;20103;-58
2022/03/10 11:07:32;;;;;;;6.85;2.83;;;;;;;5.62;33.32;103167.81;5002476;28;20485;-53
2022/03/10 11:09:59;;;;;;;8.13;2.90;;;;;;;5.54;34.10;103173.38;4999156;28;20041;-54
2022/03/10 11:12:26;;;;;;;7.45;2.75;;;;;;;5.58;34.58;103165.88;4999251;28;20049;-52
2022/03/10 11:14:53;;;;;;;8.50;3.40;;;;;;;5.61;34.67;103163.47;4993489;28;20053;-50
2022/03/10 11:17:19;;;;;;;6.30;3.25;;;;;;;5.67;34.83;103165.47;4996929;28;20986;-51
2022/03/10 11:19:47;;;;;;;5.68;2.97;;;;;;;5.66;34.62;103167.16;5000664;28;20049;-61
2022/03/10 11:22:29;;;;;;;9.70;3.40;;;;;;;5.76;33.63;103160.81;4998204;28;20410;-63
2022/03/10 11:25:18;;;;;;;6.05;3.20;;;;;;;5.71;33.67;103163.13;4998866;28;20137;-60
2022/03/10 11:27:51;;;;;;;7.97;3.00;;;;;;;5.66;34.21;103155.97;5000243;28;20123;-58